createdAt,value
2018-04-16T00:02:08.444Z,55.37
2018-04-16T00:04:36.861Z,51.27
2018-04-16T00:07:05.228Z,51.07
2018-04-16T00:09:33.588Z,51.53
2018-04-16T00:12:02.753Z,50.30
2018-04-16T00:14:31.251Z,49.10
2018-04-16T00:16:59.609Z,50.90
2018-04-16T00:19:27.932Z,50.17
2018-04-16T00:21:57.241Z,47.87
2018-04-16T00:24:25.880Z,48.73
2018-04-16T00:26:54.246Z,50.70
2018-04-16T00:29:22.631Z,47.10
2018-04-16T00:31:56.480Z,47.83
2018-04-16T00:37:43.269Z,48.20
2018-04-16T00:40:16.902Z,48.00
2018-04-16T00:42:52.034Z,47.43
2018-04-16T00:45:25.776Z,46.10
2018-04-16T00:48:00.535Z,49.33
2018-04-16T00:50:35.242Z,47.60
2018-04-16T00:53:09.072Z,44.53
2018-04-16T00:55:42.837Z,44.90
2018-04-16T00:58:17.485Z,42.53
2018-04-16T01:00:51.517Z,43.40
2018-04-16T01:03:26.311Z,42.43
2018-04-16T01:06:00.422Z,43.17
2018-04-16T01:08:34.221Z,45.17
2018-04-16T01:11:08.776Z,43.63
2018-04-16T01:13:43.183Z,44.17
2018-04-16T01:16:17.069Z,43.63
2018-04-16T01:18:51.700Z,43.20
2018-04-16T01:21:26.265Z,44.43
2018-04-16T01:24:00.128Z,46.57
2018-04-16T01:29:42.925Z,45.30
2018-04-16T01:32:16.774Z,48.80
2018-04-16T01:34:51.404Z,47.40
2018-04-16T01:37:26.167Z,44.80
2018-04-16T01:39:59.953Z,45.70
2018-04-16T01:42:33.817Z,45.80
2018-04-16T01:45:08.047Z,45.93
2018-04-16T01:47:41.991Z,45.90
2018-04-16T01:50:15.966Z,46.63
2018-04-16T01:52:49.776Z,46.57
2018-04-16T01:55:23.576Z,47.17
2018-04-16T01:57:57.390Z,44.93
2018-04-16T02:00:31.498Z,46.60
2018-04-16T02:03:05.420Z,51.47
2018-04-16T02:05:39.423Z,46.70
2018-04-16T02:08:13.197Z,45.20
2018-04-16T02:10:47.139Z,43.93
2018-04-16T02:13:21.048Z,45.30
2018-04-16T02:15:55.495Z,42.87
2018-04-16T02:18:29.383Z,41.90
2018-04-16T02:21:03.298Z,38.83
2018-04-16T02:23:37.037Z,39.47
2018-04-16T02:26:10.857Z,38.30
2018-04-16T02:28:44.707Z,39.90
2018-04-16T02:31:18.944Z,39.23
2018-04-16T02:33:53.631Z,40.13
2018-04-16T02:36:27.499Z,41.27
2018-04-16T02:39:01.203Z,37.77
2018-04-16T02:41:35.089Z,39.67
2018-04-16T02:44:09.596Z,38.47
2018-04-16T02:46:43.987Z,39.77
2018-04-16T02:49:17.640Z,42.23
2018-04-16T02:51:52.386Z,42.77
2018-04-16T02:54:26.178Z,45.23
2018-04-16T02:57:00.850Z,43.90
2018-04-16T02:59:35.389Z,42.80
2018-04-16T03:02:09.752Z,44.33
2018-04-16T03:04:43.660Z,41.23
2018-04-16T03:07:18.583Z,41.53
2018-04-16T03:09:52.457Z,42.10
2018-04-16T03:12:26.408Z,41.47
2018-04-16T03:15:00.273Z,39.50
2018-04-16T03:17:34.841Z,40.10
2018-04-16T03:20:09.460Z,39.40
2018-04-16T03:22:44.121Z,40.97
2018-04-16T03:25:17.894Z,40.47
2018-04-16T03:27:52.575Z,39.57
2018-04-16T03:30:26.392Z,41.23
2018-04-16T03:33:00.191Z,40.50
2018-04-16T03:35:34.091Z,40.50
2018-04-16T03:38:07.802Z,39.77
2018-04-16T03:40:41.668Z,40.40
2018-04-16T03:43:16.195Z,41.30
2018-04-16T03:49:00.081Z,38.90
2018-04-16T03:51:34.388Z,40.20
2018-04-16T03:54:02.737Z,39.10
2018-04-16T03:56:31.096Z,39.30
2018-04-16T03:58:59.442Z,38.50
2018-04-16T04:01:27.777Z,39.40
2018-04-16T04:03:56.130Z,40.30
2018-04-16T04:06:24.456Z,40.37
2018-04-16T04:08:54.004Z,40.40
2018-04-16T04:11:22.345Z,41.13
2018-04-16T04:13:50.724Z,42.57
2018-04-16T04:16:19.075Z,42.10
2018-04-16T04:18:47.404Z,43.30
2018-04-16T04:21:15.751Z,41.30
2018-04-16T04:24:02.369Z,41.57
2018-04-16T04:26:48.385Z,42.70
2018-04-16T04:29:34.493Z,41.60
2018-04-16T04:32:02.831Z,41.17
2018-04-16T04:34:31.193Z,41.27
2018-04-16T04:36:59.616Z,41.00
2018-04-16T04:39:27.963Z,43.43
2018-04-16T04:41:57.062Z,43.17
2018-04-16T04:44:26.664Z,42.00
2018-04-16T04:46:55.853Z,44.10
2018-04-16T04:49:24.201Z,44.30
2018-04-16T04:51:52.580Z,42.27
2018-04-16T04:54:21.703Z,44.27
2018-04-16T04:56:50.056Z,41.37
2018-04-16T04:59:18.464Z,42.17
2018-04-16T05:01:46.816Z,41.57
2018-04-16T05:04:15.154Z,41.20
2018-04-16T05:06:43.812Z,41.60
2018-04-16T05:09:12.603Z,40.27
2018-04-16T05:11:41.692Z,37.07
2018-04-16T05:14:10.096Z,36.73
2018-04-16T05:16:39.227Z,36.17
2018-04-16T05:19:07.573Z,34.83
2018-04-16T05:21:36.704Z,36.10
2018-04-16T05:24:05.797Z,35.20
2018-04-16T05:26:34.176Z,34.70
2018-04-16T05:29:02.659Z,36.40
2018-04-16T05:31:31.004Z,36.23
2018-04-16T05:34:00.106Z,34.80
2018-04-16T05:36:29.256Z,36.37
2018-04-16T05:38:57.607Z,37.20
2018-04-16T05:41:25.972Z,35.50
2018-04-16T05:43:54.326Z,36.73
2018-04-16T05:46:22.659Z,36.50
2018-04-16T05:48:51.004Z,37.30
2018-04-16T05:51:19.594Z,35.60
2018-04-16T05:53:47.983Z,34.70
2018-04-16T05:56:17.113Z,35.67
2018-04-16T05:58:45.519Z,36.40
2018-04-16T06:01:13.871Z,34.57
2018-04-16T06:03:42.232Z,37.13
2018-04-16T06:06:10.604Z,36.57
2018-04-16T06:08:38.991Z,36.20
2018-04-16T06:11:07.334Z,37.87
2018-04-16T06:13:36.804Z,35.50
2018-04-16T06:16:05.946Z,36.23
2018-04-16T06:18:34.289Z,34.97
2018-04-16T06:21:02.657Z,36.40
2018-04-16T06:23:31.026Z,35.53
2018-04-16T06:25:59.389Z,36.87
2018-04-16T06:28:27.752Z,38.60
2018-04-16T06:30:56.138Z,36.30
2018-04-16T06:33:24.527Z,35.73
2018-04-16T06:35:53.011Z,39.57
2018-04-16T06:38:21.394Z,36.53
2018-04-16T06:40:49.959Z,37.20
2018-04-16T06:43:18.468Z,38.60
2018-04-16T06:45:46.790Z,37.40
2018-04-16T06:48:15.177Z,38.33
2018-04-16T06:50:43.666Z,39.40
2018-04-16T06:53:12.899Z,39.50
2018-04-16T06:55:41.219Z,37.83
2018-04-16T06:58:10.535Z,40.00
2018-04-16T07:00:39.650Z,43.47
2018-04-16T07:03:08.026Z,39.97
2018-04-16T07:05:36.477Z,39.77
2018-04-16T07:08:04.861Z,42.47
2018-04-16T07:10:34.034Z,41.67
2018-04-16T07:13:02.534Z,42.30
2018-04-16T07:15:30.976Z,41.33
2018-04-16T07:17:59.316Z,40.63
2018-04-16T07:20:27.886Z,38.07
2018-04-16T07:22:57.024Z,40.00
2018-04-16T07:25:25.417Z,37.17
2018-04-16T07:27:53.896Z,38.07
2018-04-16T07:30:22.248Z,37.30
2018-04-16T07:32:50.572Z,37.70
2018-04-16T07:35:18.995Z,37.00
2018-04-16T07:37:48.311Z,37.70
2018-04-16T07:40:16.668Z,37.03
2018-04-16T07:42:45.145Z,39.30
2018-04-16T07:45:13.607Z,38.43
2018-04-16T07:47:43.997Z,37.20
2018-04-16T07:50:12.432Z,37.10
2018-04-16T07:52:40.811Z,36.43
2018-04-16T07:55:09.170Z,38.77
2018-04-16T07:57:37.544Z,36.50
2018-04-16T08:00:05.905Z,36.20
2018-04-16T08:02:34.258Z,36.90
2018-04-16T08:05:02.704Z,37.67
2018-04-16T08:07:31.085Z,35.77
2018-04-16T08:09:59.647Z,39.50
2018-04-16T08:12:28.053Z,38.23
2018-04-16T08:14:56.424Z,36.70
2018-04-16T08:17:24.839Z,37.90
2018-04-16T08:19:53.249Z,37.60
2018-04-16T08:22:21.673Z,37.03
2018-04-16T08:24:50.931Z,35.43
2018-04-16T08:27:20.331Z,36.50
2018-04-16T08:29:48.749Z,37.13
2018-04-16T08:32:17.110Z,35.50
2018-04-16T08:34:45.493Z,35.13
2018-04-16T08:37:13.920Z,36.57
2018-04-16T08:39:42.282Z,34.40
2018-04-16T08:42:11.514Z,32.60
2018-04-16T08:44:39.832Z,33.63
2018-04-16T08:47:08.217Z,33.03
2018-04-16T08:49:36.691Z,33.47
2018-04-16T08:52:05.043Z,34.03
2018-04-16T08:54:34.155Z,33.87
2018-04-16T08:57:02.539Z,32.67
2018-04-16T08:59:30.915Z,34.23
2018-04-16T09:01:59.283Z,33.00
2018-04-16T09:04:27.734Z,33.33
2018-04-16T09:06:56.113Z,31.97
2018-04-16T09:09:24.491Z,34.60
2018-04-16T09:11:53.684Z,33.40
2018-04-16T09:14:22.787Z,34.43
2018-04-16T09:16:51.947Z,34.27
2018-04-16T09:19:20.305Z,34.53
2018-04-16T09:21:48.687Z,33.47
2018-04-16T09:24:17.035Z,32.40
2018-04-16T09:26:45.412Z,33.00
2018-04-16T09:29:13.735Z,31.37
2018-04-16T09:31:42.089Z,32.37
2018-04-16T09:34:10.596Z,32.53
2018-04-16T09:36:38.963Z,34.97
2018-04-16T09:39:07.381Z,31.43
2018-04-16T09:41:36.545Z,33.43
2018-04-16T09:44:04.897Z,33.30
2018-04-16T09:46:33.239Z,26.13
2018-04-16T09:49:02.392Z,32.37
2018-04-16T09:51:30.732Z,32.07
2018-04-16T09:53:59.062Z,31.83
2018-04-16T09:56:27.496Z,32.57
2018-04-16T09:58:55.816Z,31.47
2018-04-16T10:01:24.163Z,32.30
2018-04-16T10:03:52.545Z,32.30
2018-04-16T10:06:20.886Z,31.10
2018-04-16T10:08:49.222Z,30.23
2018-04-16T10:11:17.616Z,33.90
2018-04-16T10:13:45.995Z,32.87
2018-04-16T10:16:14.348Z,31.43
2018-04-16T10:18:43.013Z,31.27
2018-04-16T10:21:11.365Z,30.70
2018-04-16T10:23:39.673Z,30.80
2018-04-16T10:26:08.070Z,33.17
2018-04-16T10:28:36.435Z,30.67
2018-04-16T10:31:04.817Z,28.63
2018-04-16T10:33:33.190Z,29.13
2018-04-16T10:36:02.337Z,30.00
2018-04-16T10:38:30.670Z,29.90
2018-04-16T10:40:59.094Z,27.97
2018-04-16T10:43:27.441Z,27.97
2018-04-16T10:45:55.803Z,27.57
2018-04-16T10:48:24.196Z,28.47
2018-04-16T10:50:52.566Z,28.20
2018-04-16T10:53:20.925Z,27.53
2018-04-16T10:55:49.362Z,25.93
2018-04-16T10:58:17.719Z,27.23
2018-04-16T11:00:46.079Z,28.60
2018-04-16T11:03:14.536Z,25.30
2018-04-16T11:05:42.926Z,25.13
2018-04-16T11:08:12.046Z,25.77
2018-04-16T11:10:40.643Z,25.30
2018-04-16T11:13:09.028Z,24.27
2018-04-16T11:15:37.366Z,24.20
2018-04-16T11:18:06.516Z,24.17
2018-04-16T11:20:34.883Z,25.60
2018-04-16T11:23:03.240Z,25.10
2018-04-16T11:25:32.234Z,24.20
2018-04-16T11:28:00.628Z,24.07
2018-04-16T11:30:29.783Z,25.00
2018-04-16T11:32:58.204Z,25.20
2018-04-16T11:35:26.569Z,25.27
2018-04-16T11:37:54.944Z,24.77
2018-04-16T11:40:23.300Z,23.50
2018-04-16T11:42:51.636Z,23.90
2018-04-16T11:45:19.968Z,23.47
2018-04-16T11:47:49.277Z,24.30
2018-04-16T11:50:18.369Z,22.33
2018-04-16T11:52:46.697Z,24.00
2018-04-16T11:55:15.039Z,26.40
2018-04-16T11:57:43.389Z,22.53
2018-04-16T12:00:11.731Z,22.40
2018-04-16T12:02:40.071Z,20.93
2018-04-16T12:05:08.431Z,23.20
2018-04-16T12:07:37.599Z,23.90
2018-04-16T12:10:06.168Z,22.40
2018-04-16T12:12:34.721Z,20.70
2018-04-16T12:15:03.076Z,22.27
2018-04-16T12:17:31.444Z,19.30
2018-04-16T12:19:59.829Z,20.70
2018-04-16T12:22:28.161Z,20.87
2018-04-16T12:25:02.076Z,20.80
2018-04-16T12:27:30.441Z,20.93
2018-04-16T12:29:58.785Z,20.97
2018-04-16T12:32:28.292Z,22.10
2018-04-16T12:34:56.676Z,21.20
2018-04-16T12:37:25.839Z,20.03
2018-04-16T12:39:59.631Z,21.10
2018-04-16T12:42:33.398Z,20.50
2018-04-16T12:45:01.826Z,20.13
2018-04-16T12:47:30.187Z,21.03
2018-04-16T12:49:58.575Z,19.37
2018-04-16T12:52:33.003Z,20.77
2018-04-16T12:55:01.345Z,20.07
2018-04-16T12:57:35.557Z,20.63
2018-04-16T13:00:15.637Z,21.47
2018-04-16T13:02:44.028Z,19.60
2018-04-16T13:05:18.278Z,20.43
2018-04-16T13:07:47.957Z,20.30
2018-04-16T13:10:17.094Z,20.87
2018-04-16T13:12:46.066Z,20.17
2018-04-16T13:15:25.648Z,21.90
2018-04-16T13:17:54.018Z,19.07
2018-04-16T13:20:23.147Z,20.93
2018-04-16T13:22:57.812Z,20.63
2018-04-16T13:25:26.153Z,20.23
2018-04-16T13:28:00.456Z,21.80
2018-04-16T13:30:34.497Z,19.70
2018-04-16T13:33:08.328Z,20.33
2018-04-16T13:35:36.664Z,20.97
2018-04-16T13:38:10.984Z,19.27
2018-04-16T13:40:39.317Z,19.97
2018-04-16T13:43:07.751Z,18.63
2018-04-16T13:45:47.521Z,20.00
2018-04-16T13:48:15.869Z,20.50
2018-04-16T13:50:44.204Z,23.27
2018-04-16T13:53:12.663Z,20.27
2018-04-16T13:55:46.720Z,9.73
2018-04-16T13:58:27.510Z,12.63
2018-04-16T14:01:02.162Z,16.70
2018-04-16T14:03:30.636Z,17.10
2018-04-16T14:05:59.017Z,18.73
2018-04-16T14:08:33.570Z,16.80
2018-04-16T14:11:07.650Z,17.50
2018-04-16T14:13:53.549Z,18.00
2018-04-16T14:16:22.712Z,17.80
2018-04-16T14:18:51.160Z,17.47
2018-04-16T14:21:20.368Z,17.87
2018-04-16T14:23:54.404Z,19.17
2018-04-16T14:26:22.843Z,18.47
2018-04-16T14:28:56.978Z,19.73
2018-04-16T14:31:26.121Z,18.13
2018-04-16T14:33:54.462Z,17.47
2018-04-16T14:36:22.866Z,16.07
2018-04-16T14:39:02.413Z,18.60
2018-04-16T14:41:31.548Z,20.33
2018-04-16T14:44:05.993Z,19.63
2018-04-16T14:46:39.795Z,19.30
2018-04-16T14:49:08.180Z,18.50
2018-04-16T14:51:43.273Z,17.27
2018-04-16T14:54:17.493Z,17.40
2018-04-16T14:56:45.861Z,17.83
2018-04-16T14:59:20.237Z,17.83
2018-04-16T15:01:55.228Z,14.30
2018-04-16T15:04:23.647Z,11.60
2018-04-16T15:06:52.743Z,11.00
2018-04-16T15:09:27.715Z,11.10
2018-04-16T15:11:56.084Z,10.53
2018-04-16T15:14:31.143Z,11.50
2018-04-16T15:16:59.515Z,13.33
2018-04-16T15:19:27.839Z,12.73
2018-04-16T15:21:56.245Z,17.07
2018-04-16T15:24:24.588Z,17.07
2018-04-16T15:26:52.938Z,18.87
2018-04-16T15:29:21.351Z,20.23
2018-04-16T15:31:49.732Z,20.47
2018-04-16T15:34:18.072Z,22.53
2018-04-16T15:36:46.515Z,23.40
2018-04-16T15:39:14.853Z,22.97
2018-04-16T15:41:43.188Z,22.43
2018-04-16T15:44:11.572Z,23.10
2018-04-16T15:46:39.917Z,22.60
2018-04-16T15:49:08.296Z,24.07
2018-04-16T15:51:36.675Z,22.67
2018-04-16T15:54:05.041Z,22.97
2018-04-16T15:56:33.396Z,19.17
2018-04-16T15:59:01.851Z,19.93
2018-04-16T16:01:30.192Z,21.27
2018-04-16T16:03:58.612Z,22.23
2018-04-16T16:06:27.295Z,20.57
2018-04-16T16:08:55.631Z,21.70
2018-04-16T16:11:23.975Z,21.90
2018-04-16T16:13:52.385Z,22.07
2018-04-16T16:16:20.731Z,22.30
2018-04-16T16:18:49.070Z,23.47
2018-04-16T16:21:17.841Z,23.00
2018-04-16T16:23:46.968Z,23.90
2018-04-16T16:26:16.094Z,25.90
2018-04-16T16:28:44.463Z,24.97
2018-04-16T16:31:12.779Z,24.00
2018-04-16T16:33:41.116Z,25.23
2018-04-16T16:36:09.468Z,25.17
2018-04-16T16:38:38.621Z,25.87
2018-04-16T16:41:06.943Z,25.13
2018-04-16T16:43:36.559Z,25.97
2018-04-16T16:46:05.001Z,25.73
2018-04-16T16:48:33.452Z,25.53
2018-04-16T16:51:01.840Z,24.80
2018-04-16T16:53:30.194Z,24.70
2018-04-16T16:55:58.640Z,25.90
2018-04-16T16:58:27.046Z,24.07
2018-04-16T17:00:56.227Z,27.03
2018-04-16T17:03:25.351Z,27.70
2018-04-16T17:05:54.584Z,28.03
2018-04-16T17:08:22.981Z,27.47
2018-04-16T17:10:51.377Z,27.50
2018-04-16T17:13:19.757Z,31.00
2018-04-16T17:15:48.294Z,28.70
2018-04-16T17:18:16.651Z,30.60
2018-04-16T17:20:45.803Z,29.13
2018-04-16T17:23:14.127Z,29.03
2018-04-16T17:25:44.264Z,30.33
2018-04-16T17:28:13.135Z,31.77
2018-04-16T17:30:42.244Z,32.57
2018-04-16T17:33:10.573Z,29.77
2018-04-16T17:35:38.946Z,31.20
2018-04-16T17:38:07.281Z,30.90
2018-04-16T17:40:35.630Z,31.07
2018-04-16T17:43:04.768Z,32.23
2018-04-16T17:45:33.141Z,31.10
2018-04-16T17:48:01.528Z,30.70
2018-04-16T17:50:30.408Z,32.30
2018-04-16T17:52:58.759Z,30.40
2018-04-16T17:55:27.879Z,33.87
2018-04-16T17:57:56.226Z,36.63
2018-04-16T18:00:24.577Z,32.97
2018-04-16T18:02:52.917Z,35.93
2018-04-16T18:05:21.316Z,35.73
2018-04-16T18:07:49.668Z,34.87
2018-04-16T18:10:18.018Z,35.23
2018-04-16T18:12:46.514Z,37.20
2018-04-16T18:15:15.680Z,38.80
2018-04-16T18:17:44.130Z,38.93
2018-04-16T18:20:12.485Z,39.30
2018-04-16T18:22:40.847Z,36.30
2018-04-16T18:25:09.207Z,38.33
2018-04-16T18:27:37.582Z,39.13
2018-04-16T18:30:05.983Z,39.20
2018-04-16T18:32:34.322Z,38.63
2018-04-16T18:35:02.761Z,37.47
2018-04-16T18:37:31.859Z,36.60
2018-04-16T18:40:00.198Z,37.80
2018-04-16T18:42:28.610Z,38.40
2018-04-16T18:44:56.958Z,36.20
2018-04-16T18:47:25.263Z,35.00
2018-04-16T18:49:54.406Z,32.50
2018-04-16T18:52:22.776Z,31.50
2018-04-16T18:54:51.238Z,33.73
2018-04-16T18:57:19.765Z,32.33
2018-04-16T18:59:48.118Z,34.07
2018-04-16T19:02:16.460Z,34.80
2018-04-16T19:04:44.891Z,34.60
2018-04-16T19:07:13.273Z,35.30
2018-04-16T19:09:41.695Z,35.97
2018-04-16T19:12:10.851Z,34.67
2018-04-16T19:14:39.326Z,35.40
2018-04-16T19:17:07.760Z,35.57
2018-04-16T19:19:36.902Z,34.80
2018-04-16T19:22:05.231Z,35.20
2018-04-16T19:24:33.595Z,36.90
2018-04-16T19:27:07.541Z,36.17
2018-04-16T19:29:35.901Z,35.27
2018-04-16T19:32:04.307Z,34.53
2018-04-16T19:34:38.358Z,34.90
2018-04-16T19:37:06.740Z,32.30
2018-04-16T19:39:35.232Z,33.63
2018-04-16T19:42:09.046Z,30.80
2018-04-16T19:44:38.205Z,31.93
2018-04-16T19:47:06.599Z,32.83
2018-04-16T19:52:38.829Z,30.27
2018-04-16T19:55:07.204Z,33.47
2018-04-16T19:57:41.095Z,28.23
2018-04-16T20:00:09.480Z,28.97
2018-04-16T20:02:43.312Z,27.77
2018-04-16T20:05:12.771Z,26.33
2018-04-16T20:07:41.116Z,24.40
2018-04-16T20:10:10.291Z,24.17
2018-04-16T20:12:38.635Z,25.00
2018-04-16T20:15:06.968Z,23.13
2018-04-16T20:17:35.427Z,24.07
2018-04-16T20:20:04.138Z,21.10
2018-04-16T20:22:32.495Z,20.80
2018-04-16T20:25:00.857Z,19.70
2018-04-16T20:27:29.375Z,19.90
2018-04-16T20:29:58.535Z,17.70
2018-04-16T20:32:26.920Z,16.37
2018-04-16T20:34:55.295Z,17.23
2018-04-16T20:37:23.701Z,14.97
2018-04-16T20:39:52.131Z,14.73
2018-04-16T20:42:20.668Z,13.57
2018-04-16T20:44:49.806Z,12.93
2018-04-16T20:47:18.211Z,12.27
2018-04-16T20:49:46.848Z,12.00
2018-04-16T20:52:15.290Z,11.83
2018-04-16T20:54:43.743Z,13.23
2018-04-16T20:57:12.167Z,13.50
2018-04-16T20:59:40.551Z,12.30
2018-04-16T21:02:09.673Z,13.40
2018-04-16T21:04:38.065Z,12.83
2018-04-16T21:07:06.448Z,14.53
2018-04-16T21:09:35.731Z,13.83
2018-04-16T21:12:04.387Z,14.70
2018-04-16T21:14:33.578Z,14.07
2018-04-16T21:17:01.935Z,14.37
2018-04-16T21:19:30.341Z,12.60
2018-04-16T21:21:58.709Z,13.00
2018-04-16T21:24:27.076Z,11.97
2018-04-16T21:26:56.261Z,11.90
2018-04-16T21:29:24.672Z,12.27
2018-04-16T21:31:53.040Z,10.83
2018-04-16T21:34:21.520Z,12.43
2018-04-16T21:36:49.858Z,9.23
2018-04-16T21:39:18.228Z,9.10
2018-04-16T21:41:46.645Z,9.17
2018-04-16T21:44:15.028Z,9.23
2018-04-16T21:46:43.452Z,8.33
2018-04-16T21:49:11.843Z,8.90
2018-04-16T21:51:40.977Z,8.03
2018-04-16T21:54:09.383Z,7.73
2018-04-16T21:56:37.800Z,6.90
2018-04-16T21:59:06.876Z,8.17
2018-04-16T22:01:35.220Z,8.30
2018-04-16T22:04:03.700Z,6.10
2018-04-16T22:06:32.107Z,6.40
2018-04-16T22:09:00.453Z,6.80
2018-04-16T22:11:28.854Z,5.33
2018-04-16T22:13:57.226Z,6.67
2018-04-16T22:16:25.567Z,5.50
2018-04-16T22:18:53.994Z,5.63
2018-04-16T22:21:22.316Z,4.40
2018-04-16T22:23:50.695Z,4.87
2018-04-16T22:26:19.090Z,4.43
2018-04-16T22:28:47.435Z,5.10
2018-04-16T22:31:15.832Z,4.73
2018-04-16T22:33:44.983Z,4.20
2018-04-16T22:36:13.366Z,4.63
2018-04-16T22:38:41.709Z,5.20
2018-04-16T22:41:10.249Z,4.27
2018-04-16T22:43:38.600Z,4.10
2018-04-16T22:46:06.924Z,3.90
2018-04-16T22:48:36.059Z,4.53
2018-04-16T22:51:04.406Z,4.37
2018-04-16T22:53:32.779Z,4.93
2018-04-16T22:56:01.931Z,4.17
2018-04-16T22:58:30.253Z,4.00
2018-04-16T23:00:59.383Z,5.03
2018-04-16T23:03:27.866Z,3.90
2018-04-16T23:05:56.245Z,4.57
2018-04-16T23:08:24.588Z,4.30
2018-04-16T23:10:52.920Z,4.03
2018-04-16T23:13:21.281Z,4.93
2018-04-16T23:15:49.647Z,4.50
2018-04-16T23:18:18.020Z,3.90
2018-04-16T23:20:46.403Z,4.00
2018-04-16T23:23:14.750Z,5.07
2018-04-16T23:25:44.089Z,4.90
2018-04-16T23:28:12.474Z,4.73
2018-04-16T23:30:40.840Z,4.10
2018-04-16T23:33:09.312Z,3.93
2018-04-16T23:35:37.665Z,3.97
2018-04-16T23:38:06.015Z,5.63
2018-04-16T23:40:34.432Z,4.27
2018-04-16T23:43:03.554Z,4.07
2018-04-16T23:45:31.928Z,4.97
2018-04-16T23:48:01.158Z,4.10
2018-04-16T23:50:29.557Z,4.63
2018-04-16T23:52:57.853Z,4.60
2018-04-16T23:55:26.226Z,4.70
2018-04-16T23:57:54.608Z,5.10
